Time;durP1;ratioP1;P1;durP2;ratioP2;P2;SDS_P1;SDS_P2;PMS_P1;PMS_P2;Temp;Humidity;BMP_temperature;BMP_pressure;BME280_temperature;BME280_humidity;BME280_pressure;Samples;Min_cycle;Max_cycle;Signal;HPM_P1;HPM_P2
2022/06/04 00:00:42;;;;;;;168.52;161.65;;;;;;;21.81;46.39;101697.81;5035813;28;20041;-82
2022/06/04 00:03:08;;;;;;;160.23;153.63;;;;;;;21.80;46.33;101699.75;5035861;28;20061;-82
2022/06/04 00:05:39;;;;;;;170.88;163.90;;;;;;;21.82;46.36;101707.69;5034466;28;20142;-82
2022/06/04 00:08:06;;;;;;;205.73;197.55;;;;;;;21.81;46.12;101695.88;5035763;28;20408;-82
2022/06/04 00:16:08;;;;;;;244.63;235.05;;;;;;;21.82;45.93;101685.69;5035791;28;20048;-83
2022/06/04 00:18:33;;;;;;;317.35;305.20;;;;;;;21.80;45.87;101690.69;5050412;28;20410;-82
2022/06/04 00:20:59;;;;;;;312.75;300.88;;;;;;;21.76;45.69;101684.94;5035667;28;20044;-82
2022/06/04 00:23:26;;;;;;;313.30;301.35;;;;;;;21.79;46.11;101692.59;5034989;28;20029;-82
2022/06/04 00:25:54;;;;;;;301.27;289.63;;;;;;;21.77;45.64;101700.34;5034395;28;20435;-83
2022/06/04 00:28:21;;;;;;;313.42;301.20;;;;;;;21.76;45.96;101689.63;5034017;28;20032;-82
2022/06/04 00:30:48;;;;;;;305.77;294.17;;;;;;;21.75;45.80;101685.25;5033825;28;20037;-82
2022/06/04 00:33:16;;;;;;;292.00;280.85;;;;;;;21.74;46.02;101700.91;5035355;28;20029;-82
2022/06/04 00:35:42;;;;;;;309.33;297.47;;;;;;;21.73;45.91;101695.72;5035232;28;20108;-81
2022/06/04 00:38:08;;;;;;;247.68;238.05;;;;;;;21.72;45.71;101708.66;5034139;28;20380;-83
2022/06/04 00:40:48;;;;;;;262.05;251.98;;;;;;;21.73;45.53;101704.78;5033394;28;20145;-82
2022/06/04 00:43:14;;;;;;;215.88;207.18;;;;;;;21.71;45.84;101696.00;5035236;28;20476;-82
2022/06/04 00:45:58;;;;;;;235.57;226.25;;;;;;;21.72;45.50;101691.31;5033675;28;20038;-82
2022/06/04 00:48:24;;;;;;;223.13;214.43;;;;;;;21.71;45.77;101696.00;5035079;28;20533;-82
2022/06/04 00:50:49;;;;;;;216.55;208.10;;;;;;;21.71;45.48;101700.69;5035095;28;20034;-83
2022/06/04 00:53:14;;;;;;;184.77;177.23;;;;;;;21.70;45.72;101710.06;5050313;28;20040;-82
2022/06/04 00:56:09;;;;;;;169.13;162.07;;;;;;;21.70;45.83;101710.88;5035288;28;20418;-82
2022/06/04 00:59:10;;;;;;;141.52;135.52;;;;;;;21.66;45.54;101722.75;5034224;28;20112;-83
2022/06/04 01:01:59;;;;;;;130.25;124.55;;;;;;;21.69;45.53;101713.91;5033533;28;20041;-82
2022/06/04 01:04:50;;;;;;;120.82;115.63;;;;;;;21.67;45.34;101725.22;5033460;28;20030;-82
2022/06/04 01:07:43;;;;;;;121.07;115.88;;;;;;;21.68;45.72;101732.34;5034720;28;20443;-82
2022/06/04 01:10:26;;;;;;;117.55;112.35;;;;;;;21.66;45.62;101751.06;5035032;28;20022;-83
2022/06/04 01:13:16;;;;;;;125.20;119.85;;;;;;;21.65;45.43;101760.44;5034426;28;20037;-82
2022/06/04 01:16:17;;;;;;;127.05;121.65;;;;;;;21.68;45.80;101764.53;5034120;28;20427;-82
2022/06/04 01:18:52;;;;;;;128.13;122.60;;;;;;;21.67;45.51;101762.88;5034337;28;20025;-82
2022/06/04 01:21:38;;;;;;;148.15;141.98;;;;;;;21.67;45.52;101755.47;5034869;28;20108;-82
2022/06/04 01:24:36;;;;;;;177.40;170.30;;;;;;;21.65;45.48;101749.44;5034295;28;20037;-82
2022/06/04 01:27:19;;;;;;;187.57;180.13;;;;;;;21.67;45.73;101768.38;5035554;28;20030;-83
2022/06/04 01:30:15;;;;;;;191.10;183.48;;;;;;;21.67;45.75;101763.72;5034241;28;20096;-82
2022/06/04 01:33:04;;;;;;;233.15;224.10;;;;;;;21.65;45.71;101745.88;5034004;28;20068;-82
2022/06/04 01:35:40;;;;;;;196.98;189.13;;;;;;;21.65;45.43;101749.44;5034088;28;20099;-82
2022/06/04 01:38:17;;;;;;;330.13;317.67;;;;;;;21.67;45.30;101752.72;5034243;28;20466;-84
2022/06/04 01:41:03;;;;;;;313.13;301.20;;;;;;;21.66;45.96;101766.75;5032799;28;20367;-83
2022/06/04 01:43:33;;;;;;;209.88;201.63;;;;;;;21.66;45.75;101761.25;5035801;28;20163;-82
2022/06/04 01:46:07;;;;;;;191.90;184.32;;;;;;;21.65;45.41;101763.19;5039945;28;20053;-84
2022/06/04 01:48:37;;;;;;;269.65;259.30;;;;;;;21.65;45.74;101765.94;5039022;28;20030;-82
2022/06/04 01:51:03;;;;;;;252.82;243.07;;;;;;;21.64;45.49;101767.03;5037329;28;20025;-83
2022/06/04 01:53:36;;;;;;;272.35;261.90;;;;;;;21.63;45.23;101770.91;5036723;28;20038;-82
2022/06/04 01:56:15;;;;;;;265.70;255.55;;;;;;;21.67;45.74;101787.63;5034232;28;20056;-83
2022/06/04 01:58:48;;;;;;;260.73;250.70;;;;;;;21.65;45.50;101790.69;5034209;28;20025;-83
2022/06/04 02:01:19;;;;;;;272.33;261.88;;;;;;;21.61;45.44;101797.88;5033765;28;20038;-83
2022/06/04 02:03:47;;;;;;;392.60;377.70;;;;;;;21.63;45.36;101795.66;5033329;28;20029;-83
2022/06/04 02:06:22;;;;;;;341.33;328.35;;;;;;;21.63;45.44;101784.66;5033679;28;20104;-85
2022/06/04 02:08:55;;;;;;;283.35;272.58;;;;;;;21.63;45.55;101778.34;5036061;28;20136;-83
2022/06/04 02:11:23;;;;;;;283.92;272.83;;;;;;;21.64;45.49;101774.47;5039015;28;20030;-85
2022/06/04 02:13:52;;;;;;;264.95;254.63;;;;;;;21.63;45.65;101779.16;5040301;28;20025;-83
2022/06/04 02:16:36;;;;;;;290.48;279.42;;;;;;;21.63;45.59;101778.34;5042716;28;20029;-83
2022/06/04 02:19:03;;;;;;;245.63;236.10;;;;;;;21.60;45.96;101783.31;5037391;28;20362;-83
2022/06/04 02:21:29;;;;;;;259.42;249.38;;;;;;;21.60;45.52;101788.00;5033929;28;20473;-81
2022/06/04 02:23:55;;;;;;;243.85;234.05;;;;;;;21.59;45.66;101800.09;5033627;28;20030;-83
2022/06/04 02:26:22;;;;;;;236.52;227.23;;;;;;;21.60;45.73;101794.31;5033196;28;20468;-83
2022/06/04 02:28:48;;;;;;;255.20;245.23;;;;;;;21.61;45.59;101798.69;5033620;28;20030;-87
2022/06/04 02:31:36;;;;;;;209.48;201.25;;;;;;;21.60;45.09;101796.25;5033368;28;20516;-84
2022/06/04 02:34:32;;;;;;;198.20;190.35;;;;;;;21.59;45.48;101786.34;5033525;28;20025;-83
2022/06/04 02:37:30;;;;;;;207.48;199.35;;;;;;;21.59;45.60;101776.16;5032577;28;20021;-85
2022/06/04 02:40:07;;;;;;;189.40;181.82;;;;;;;21.60;45.71;101763.25;5033589;28;20125;-83
2022/06/04 02:42:58;;;;;;;189.77;182.05;;;;;;;21.58;45.28;101766.28;5032754;28;20468;-82
2022/06/04 02:45:32;;;;;;;197.27;189.43;;;;;;;21.58;45.54;101744.28;5033318;28;20038;-83
2022/06/04 02:48:10;;;;;;;217.02;208.57;;;;;;;21.59;45.67;101734.91;5033805;28;20103;-83
2022/06/04 02:50:41;;;;;;;206.45;198.32;;;;;;;21.59;45.22;101728.59;5033466;28;20025;-83
2022/06/04 02:53:09;;;;;;;222.02;213.38;;;;;;;21.59;45.21;101729.41;5033718;28;20450;-83
2022/06/04 02:55:46;;;;;;;202.38;194.43;;;;;;;21.60;45.24;101720.06;5033212;28;20060;-81
2022/06/04 02:58:15;;;;;;;203.20;195.23;;;;;;;21.59;45.46;101714.84;5032832;28;20041;-83
2022/06/04 03:00:42;;;;;;;199.52;191.43;;;;;;;21.58;45.16;101711.28;5031922;28;20045;-83
2022/06/04 03:03:12;;;;;;;202.68;194.77;;;;;;;21.59;45.01;101701.09;5033483;28;20029;-84
2022/06/04 03:05:39;;;;;;;176.85;169.75;;;;;;;21.59;45.15;101693.69;5048501;28;20041;-84
2022/06/04 03:08:05;;;;;;;160.98;154.38;;;;;;;21.58;44.96;101689.31;5033067;28;20034;-84
2022/06/04 03:10:35;;;;;;;153.85;147.35;;;;;;;21.58;45.00;101689.31;5032869;28;20043;-83
2022/06/04 03:13:00;;;;;;;134.73;129.05;;;;;;;21.61;44.88;101687.91;5033021;28;20060;-83
2022/06/04 03:15:26;;;;;;;128.23;122.82;;;;;;;21.60;45.13;101689.03;5032998;28;20116;-86
2022/06/04 03:17:52;;;;;;;123.88;118.57;;;;;;;21.61;44.87;101694.19;5048549;28;20033;-84
2022/06/04 03:20:21;;;;;;;120.53;115.38;;;;;;;21.57;44.39;101708.81;5032347;28;20040;-84
2022/06/04 03:22:47;;;;;;;116.22;111.07;;;;;;;21.55;44.88;101705.56;5035746;28;20025;-83
2022/06/04 03:25:13;;;;;;;96.53;92.35;;;;;;;21.55;45.09;101705.56;5036599;28;20090;-84
2022/06/04 03:27:38;;;;;;;91.05;86.90;;;;;;;21.58;44.97;101700.28;5036146;28;20112;-83
2022/06/04 03:30:05;;;;;;;95.68;91.47;;;;;;;21.60;45.28;101694.53;5036818;28;20445;-82
2022/06/04 03:32:30;;;;;;;102.47;97.97;;;;;;;21.57;45.23;101701.41;5036676;28;20030;-83
2022/06/04 03:34:56;;;;;;;112.32;107.53;;;;;;;21.56;45.14;101704.44;5036433;28;20034;-84
2022/06/04 03:37:21;;;;;;;120.25;115.13;;;;;;;21.56;44.64;101713.50;5035864;28;20037;-84
2022/06/04 03:39:47;;;;;;;127.57;122.07;;;;;;;21.55;44.83;101722.88;5036025;28;20421;-84
2022/06/04 03:42:12;;;;;;;133.25;127.55;;;;;;;21.55;44.69;101727.56;5035635;28;20029;-83
2022/06/04 03:44:37;;;;;;;137.85;132.05;;;;;;;21.55;44.76;101722.88;5051614;28;20452;-81
2022/06/04 03:47:03;;;;;;;140.05;134.15;;;;;;;21.55;44.67;101717.38;5035600;28;20033;-83
2022/06/04 03:49:29;;;;;;;143.25;137.25;;;;;;;21.54;45.23;101725.91;5035361;28;20037;-83
2022/06/04 03:51:54;;;;;;;136.18;130.27;;;;;;;21.52;44.38;101726.22;5035289;28;20351;-83
2022/06/04 03:54:52;;;;;;;139.63;133.77;;;;;;;21.53;44.94;101724.28;5034736;28;20493;-83
2022/06/04 03:59:52;;;;;;;122.30;116.95;;;;;;;21.52;44.94;101736.38;5036326;28;20088;-84
2022/06/04 04:02:17;;;;;;;118.10;113.00;;;;;;;21.53;44.51;101741.59;5035994;28;20489;-83
2022/06/04 04:04:43;;;;;;;112.75;107.80;;;;;;;21.52;44.79;101745.47;5036026;28;20045;-84
2022/06/04 04:07:08;;;;;;;105.25;100.65;;;;;;;21.49;44.63;101743.28;5034710;28;20488;-84
2022/06/04 04:09:34;;;;;;;103.50;99.03;;;;;;;21.48;45.05;101747.16;5036075;28;20052;-84
2022/06/04 04:11:59;;;;;;;103.93;99.43;;;;;;;21.48;44.75;101751.84;5035684;28;20108;-83
2022/06/04 04:14:25;;;;;;;109.43;104.72;;;;;;;21.48;44.94;101757.34;5034462;28;20033;-85
2022/06/04 04:16:50;;;;;;;116.75;111.65;;;;;;;21.49;44.68;101753.47;5035633;28;20025;-84
2022/06/04 04:19:16;;;;;;;113.22;108.28;;;;;;;21.47;44.24;101751.03;5035520;28;20034;-84
2022/06/04 04:21:41;;;;;;;108.63;103.97;;;;;;;21.45;44.91;101755.19;5050645;28;20540;-81
2022/06/04 04:24:07;;;;;;;104.90;100.38;;;;;;;21.47;45.32;101752.94;5035444;28;20037;-84
2022/06/04 04:26:32;;;;;;;108.65;103.95;;;;;;;21.48;44.87;101760.09;5035358;28;20034;-83
2022/06/04 04:28:57;;;;;;;111.50;106.50;;;;;;;21.47;44.32;101756.53;5034789;28;20191;-83
2022/06/04 04:31:23;;;;;;;109.30;104.63;;;;;;;21.47;44.96;101752.94;5051114;28;20033;-82
2022/06/04 04:33:48;;;;;;;108.63;103.90;;;;;;;21.46;45.04;101754.88;5033000;28;20124;-84
2022/06/04 04:36:14;;;;;;;111.68;106.93;;;;;;;21.45;45.05;101753.25;5050780;28;20405;-82
2022/06/04 04:38:39;;;;;;;109.28;104.47;;;;;;;21.47;44.61;101759.28;5035552;28;20071;-83
2022/06/04 04:41:13;;;;;;;105.15;100.53;;;;;;;21.47;44.87;101766.69;5035604;28;20103;-83
2022/06/04 04:43:39;;;;;;;100.15;95.85;;;;;;;21.45;44.39;101764.22;5039024;28;20026;-83
2022/06/04 04:46:08;;;;;;;98.68;94.30;;;;;;;21.44;44.69;101768.06;5054401;28;20068;-84
2022/06/04 04:48:34;;;;;;;102.63;98.18;;;;;;;21.47;44.63;101774.91;5035781;28;20037;-83
2022/06/04 04:50:59;;;;;;;109.78;105.05;;;;;;;21.43;44.50;101774.69;5039346;28;20116;-83
2022/06/04 04:53:25;;;;;;;107.80;102.93;;;;;;;21.45;44.45;101777.16;5053540;28;20041;-83
2022/06/04 04:55:50;;;;;;;112.55;107.65;;;;;;;21.44;44.65;101776.31;5033837;28;20543;-83
2022/06/04 04:58:16;;;;;;;112.47;107.57;;;;;;;21.45;44.51;101777.16;5034909;28;20358;-84
2022/06/04 05:00:44;;;;;;;114.03;109.10;;;;;;;21.44;44.40;101772.75;5033471;28;20108;-83
2022/06/04 05:03:10;;;;;;;115.32;110.32;;;;;;;21.43;44.91;101777.44;5034940;28;20030;-84
2022/06/04 05:05:36;;;;;;;119.78;114.68;;;;;;;21.43;44.85;101774.69;5035149;28;20030;-85
2022/06/04 05:08:01;;;;;;;120.85;115.55;;;;;;;21.45;44.50;101774.41;5034588;28;20044;-84
2022/06/04 05:10:27;;;;;;;119.95;114.82;;;;;;;21.44;44.29;101768.06;5049616;28;20060;-84
2022/06/04 05:12:53;;;;;;;127.30;121.80;;;;;;;21.42;44.85;101769.47;5033146;28;20061;-83
2022/06/04 05:15:20;;;;;;;126.43;120.93;;;;;;;21.41;44.74;101771.41;5034671;28;20121;-83
2022/06/04 05:17:45;;;;;;;125.70;120.25;;;;;;;21.42;45.10;101773.06;5034913;28;20029;-81
2022/06/04 05:20:11;;;;;;;124.13;118.78;;;;;;;21.43;44.60;101765.63;5049692;28;20436;-84
2022/06/04 05:22:36;;;;;;;124.70;119.40;;;;;;;21.38;44.59;101766.47;5034398;28;20086;-84
2022/06/04 05:25:03;;;;;;;127.38;121.93;;;;;;;21.39;44.24;101768.13;5034546;28;20033;-84
2022/06/04 05:27:29;;;;;;;127.22;121.82;;;;;;;21.41;44.96;101774.16;5034347;28;20473;-83
2022/06/04 05:29:54;;;;;;;131.70;125.90;;;;;;;21.38;44.92;101775.56;5033154;28;20052;-84
2022/06/04 05:32:20;;;;;;;132.20;126.43;;;;;;;21.38;44.44;101781.06;5034242;28;20025;-84
2022/06/04 05:34:45;;;;;;;129.80;124.30;;;;;;;21.40;44.98;101791.78;5053624;28;20446;-83
2022/06/04 05:37:10;;;;;;;133.77;128.13;;;;;;;21.39;44.47;101792.88;5034736;28;20040;-84
2022/06/04 05:39:36;;;;;;;134.68;128.98;;;;;;;21.39;44.47;101801.97;5049094;28;20049;-83
2022/06/04 05:42:03;;;;;;;137.40;131.40;;;;;;;21.38;44.56;101807.69;5034600;28;20417;-83
2022/06/04 05:44:29;;;;;;;136.23;130.33;;;;;;;21.39;44.52;101798.38;5034032;28;20485;-84
2022/06/04 05:46:55;;;;;;;139.10;132.93;;;;;;;21.40;44.33;101811.00;5032914;28;20025;-84
2022/06/04 05:49:21;;;;;;;134.77;128.82;;;;;;;21.39;44.86;101817.59;5040352;28;20037;-84
2022/06/04 05:51:48;;;;;;;137.75;131.80;;;;;;;21.42;44.80;101811.56;5040083;28;20036;-84
2022/06/04 05:54:14;;;;;;;138.10;132.25;;;;;;;21.44;44.78;101814.81;5042426;28;20036;-84
2022/06/04 05:56:42;;;;;;;138.73;132.85;;;;;;;21.41;44.25;101807.16;5044240;28;20052;-83
2022/06/04 05:59:13;;;;;;;139.98;133.88;;;;;;;21.41;44.21;101804.41;5045008;28;20065;-85
2022/06/04 06:01:41;;;;;;;135.75;130.05;;;;;;;21.38;44.66;101799.44;5041609;28;20025;-85
2022/06/04 06:04:07;;;;;;;135.68;129.77;;;;;;;21.38;45.23;101813.19;5035115;28;20056;-85
2022/06/04 06:06:34;;;;;;;136.18;130.27;;;;;;;21.38;44.74;101815.94;5035665;28;20057;-85
2022/06/04 06:09:04;;;;;;;139.57;133.57;;;;;;;21.39;44.92;101817.59;5034952;28;20460;-82
2022/06/04 06:11:31;;;;;;;140.65;134.75;;;;;;;21.40;44.83;101816.50;5040088;28;20043;-86
2022/06/04 06:13:56;;;;;;;153.35;146.90;;;;;;;21.39;44.71;101818.44;5035901;28;20026;-87
2022/06/04 06:16:25;;;;;;;158.40;151.82;;;;;;;21.41;45.11;101822.81;5043581;28;20072;-87
2022/06/04 06:18:50;;;;;;;;;;;;;;;21.42;44.47;101828.03;5047322;28;20034;-85
2022/06/04 06:21:21;;;;;;;156.70;150.10;;;;;;;21.43;44.53;101817.88;5044061;28;20016;-86
2022/06/04 06:23:48;;;;;;;159.23;152.63;;;;;;;21.41;44.96;101826.38;5041196;28;20469;-85
2022/06/04 06:26:16;;;;;;;160.75;154.05;;;;;;;21.39;44.74;101817.59;5041074;28;20025;-86
2022/06/04 06:28:43;;;;;;;161.35;154.57;;;;;;;21.41;45.38;101823.63;5036164;28;20033;-84
2022/06/04 06:31:11;;;;;;;165.32;158.55;;;;;;;21.41;44.66;101823.63;5035105;28;20426;-87
2022/06/04 06:33:37;;;;;;;172.65;165.50;;;;;;;21.41;44.79;101825.56;5034768;28;20072;-86
2022/06/04 06:36:08;;;;;;;176.88;169.65;;;;;;;21.40;44.78;101830.25;5034370;28;20057;-85
2022/06/04 06:38:34;;;;;;;180.10;172.88;;;;;;;21.40;44.98;101830.25;5034493;28;20497;-86
2022/06/04 06:41:00;;;;;;;180.57;173.25;;;;;;;21.42;45.05;101838.19;5034953;28;20041;-85
2022/06/04 06:43:33;;;;;;;176.50;169.32;;;;;;;21.42;44.89;101832.69;5035308;28;20163;-85
2022/06/04 06:46:11;;;;;;;186.65;178.98;;;;;;;21.42;44.91;101833.53;5035184;28;20022;-85
2022/06/04 06:48:39;;;;;;;200.27;192.40;;;;;;;21.44;45.24;101831.28;5047722;28;20032;-85
2022/06/04 06:51:15;;;;;;;211.27;202.55;;;;;;;21.42;45.35;101839.03;5046168;28;20040;-85
2022/06/04 06:53:41;;;;;;;205.40;197.27;;;;;;;21.43;44.96;101832.41;5042836;28;20091;-85
2022/06/04 06:56:12;;;;;;;195.75;187.90;;;;;;;21.42;45.34;101833.53;5056683;28;20469;-85
2022/06/04 06:58:37;;;;;;;190.75;183.15;;;;;;;21.43;44.98;101837.91;5038783;28;20029;-83
2022/06/04 07:01:04;;;;;;;182.00;174.43;;;;;;;21.43;45.05;101832.41;5038622;28;20030;-85
2022/06/04 07:03:29;;;;;;;182.98;175.63;;;;;;;21.44;45.04;101835.97;5037116;28;20087;-86
2022/06/04 07:05:55;;;;;;;187.15;179.60;;;;;;;21.42;45.50;101839.03;5037648;28;20136;-86
2022/06/04 07:08:21;;;;;;;174.07;167.02;;;;;;;21.42;45.42;101833.53;5037443;28;20542;-85
2022/06/04 07:10:47;;;;;;;194.82;186.98;;;;;;;21.44;45.10;101839.53;5052574;28;20034;-87
2022/06/04 07:13:12;;;;;;;182.25;174.75;;;;;;;21.44;45.36;101839.53;5036434;28;20083;-87
2022/06/04 07:15:38;;;;;;;211.00;202.70;;;;;;;21.45;45.14;101838.44;5052348;28;20053;-87
2022/06/04 07:18:03;;;;;;;239.13;229.82;;;;;;;21.48;44.88;101845.31;5053020;28;20112;-86
2022/06/04 07:20:29;;;;;;;480.13;462.20;;;;;;;21.51;44.92;101850.22;5037031;28;20083;-81
2022/06/04 07:22:54;;;;;;;734.63;704.97;;;;;;;21.54;45.05;101850.44;5036626;28;20034;-83
2022/06/04 07:25:21;;;;;;;978.95;915.33;;;;;;;21.55;45.20;101849.34;5036802;28;20033;-82
2022/06/04 07:27:47;;;;;;;1018.95;951.13;;;;;;;21.57;45.26;101846.28;5036678;28;20483;-83
2022/06/04 07:30:13;;;;;;;987.45;924.40;;;;;;;21.58;44.99;101854.25;5036560;28;20057;-79
2022/06/04 07:32:38;;;;;;;913.80;864.50;;;;;;;21.58;45.04;101859.75;5036377;28;20033;-82
2022/06/04 07:35:04;;;;;;;310.20;298.17;;;;;;;21.58;45.73;101870.75;5035930;28;20135;-79
2022/06/04 07:37:29;;;;;;;526.70;506.95;;;;;;;21.58;46.12;101864.44;5036538;28;20373;-81
2022/06/04 07:39:55;;;;;;;658.95;633.42;;;;;;;21.57;46.83;101863.63;5038051;28;20057;-85
2022/06/04 07:42:20;;;;;;;995.53;939.00;;;;;;;21.61;46.88;101866.59;5037177;28;20107;-83
2022/06/04 07:44:46;;;;;;;872.13;830.22;;;;;;;21.63;47.11;101864.41;5042115;28;20107;-83
2022/06/04 07:47:12;;;;;;;1011.40;953.40;;;;;;;21.67;46.79;101867.38;5037510;28;20038;-81
2022/06/04 07:49:37;;;;;;;977.72;922.67;;;;;;;21.63;47.01;101866.31;5040686;28;20033;-85
2022/06/04 07:52:03;;;;;;;1009.53;952.28;;;;;;;21.69;48.93;101870.66;5038175;28;20029;-79
2022/06/04 07:54:30;;;;;;;1016.83;957.13;;;;;;;21.67;48.51;101872.88;5052721;28;20457;-81
2022/06/04 07:56:56;;;;;;;1010.15;950.38;;;;;;;21.67;48.81;101872.88;5051361;28;20025;-83
2022/06/04 07:59:21;;;;;;;1014.92;954.88;;;;;;;21.60;49.69;101862.22;5036939;28;20036;-88
2022/06/04 08:01:47;;;;;;;1015.55;954.42;;;;;;;21.63;48.73;101867.16;5051167;28;20093;-81
2022/06/04 08:04:13;;;;;;;1018.22;957.45;;;;;;;21.64;48.61;101857.78;5033878;28;20048;-81
2022/06/04 08:06:38;;;;;;;1004.33;945.88;;;;;;;21.63;49.18;101861.66;5034286;28;20037;-81
2022/06/04 08:09:04;;;;;;;1010.58;951.08;;;;;;;21.61;48.73;101861.91;5050650;28;20041;-79
2022/06/04 08:11:32;;;;;;;399.83;383.75;;;;;;;21.59;48.69;101869.63;5035410;28;20025;-83
2022/06/04 08:14:16;;;;;;;390.35;374.73;;;;;;;21.58;48.12;101862.50;5033769;28;20498;-81
2022/06/04 08:16:45;;;;;;;371.63;357.02;;;;;;;21.58;47.92;101858.94;5034069;28;20424;-82
2022/06/04 08:19:10;;;;;;;348.42;334.65;;;;;;;21.60;47.92;101852.03;5034871;28;20033;-80
2022/06/04 08:21:37;;;;;;;347.15;333.33;;;;;;;21.59;47.73;101858.63;5034864;28;20033;-78
2022/06/04 08:24:03;;;;;;;335.95;322.40;;;;;;;21.64;48.14;101852.28;5034875;28;20034;-77
2022/06/04 08:26:30;;;;;;;332.70;319.63;;;;;;;21.71;47.87;101847.25;5034076;28;20096;-79
2022/06/04 08:28:56;;;;;;;317.20;304.60;;;;;;;21.71;47.34;101840.94;5035735;28;20357;-79
2022/06/04 08:31:21;;;;;;;313.42;300.88;;;;;;;21.74;47.57;101848.59;5033701;28;20458;-79
2022/06/04 08:33:47;;;;;;;319.02;306.50;;;;;;;21.76;46.73;101835.38;5034766;28;20040;-79
2022/06/04 08:36:14;;;;;;;313.05;300.52;;;;;;;21.77;46.34;101834.25;5050041;28;20033;-78
2022/06/04 08:38:40;;;;;;;300.33;288.35;;;;;;;21.77;45.62;101837.00;5035228;28;20037;-79
2022/06/04 08:41:18;;;;;;;287.80;276.35;;;;;;;21.76;45.48;101838.94;5035178;28;20053;-79
2022/06/04 08:44:04;;;;;;;293.65;282.08;;;;;;;21.76;45.96;101843.63;5034708;28;20048;-79
2022/06/04 08:46:39;;;;;;;289.13;277.65;;;;;;;21.76;45.65;101843.63;5035219;28;20047;-79
2022/06/04 08:49:13;;;;;;;285.55;274.15;;;;;;;21.78;45.92;101863.41;5034777;28;20048;-79
2022/06/04 08:51:39;;;;;;;286.30;274.63;;;;;;;21.83;45.22;101864.19;5034744;28;20065;-83
2022/06/04 08:59:59;;;;;;;289.30;277.90;;;;;;;21.77;45.35;101861.75;5034362;28;20539;-81
2022/06/04 09:02:52;;;;;;;285.38;273.58;;;;;;;21.79;45.72;101863.09;5034083;28;20033;-87
2022/06/04 09:05:24;;;;;;;288.73;277.02;;;;;;;21.79;45.82;101854.84;5034462;28;20045;-83
2022/06/04 09:07:56;;;;;;;286.30;274.05;;;;;;;21.84;45.40;101865.00;5034849;28;20034;-81
2022/06/04 09:10:29;;;;;;;282.65;270.50;;;;;;;21.86;46.25;101871.03;5033389;28;20056;-78
2022/06/04 09:13:01;;;;;;;282.88;271.08;;;;;;;21.86;45.83;101870.22;5034446;28;20033;-79
2022/06/04 09:15:34;;;;;;;300.00;287.27;;;;;;;21.84;46.23;101876.00;5034102;28;20032;-82
2022/06/04 09:18:09;;;;;;;300.63;288.15;;;;;;;21.85;45.63;101869.41;5032879;28;20036;-81
2022/06/04 09:20:44;;;;;;;287.23;274.40;;;;;;;21.90;45.68;101866.59;5033789;28;20037;-82
2022/06/04 09:23:35;;;;;;;304.02;291.63;;;;;;;21.91;46.19;101875.66;5033972;28;20067;-81
2022/06/04 09:26:07;;;;;;;288.13;276.23;;;;;;;21.89;45.57;101869.63;5033741;28;20038;-82
2022/06/04 09:28:43;;;;;;;280.35;269.15;;;;;;;21.81;45.73;101869.16;5032765;28;20033;-81
2022/06/04 09:31:18;;;;;;;270.55;258.95;;;;;;;21.82;45.87;101875.47;5034253;28;20071;-83
2022/06/04 09:33:53;;;;;;;261.98;251.50;;;;;;;21.85;45.60;101874.91;5034279;28;20033;-84
2022/06/04 09:36:22;;;;;;;258.52;248.13;;;;;;;21.85;46.10;101871.31;5034169;28;20082;-85
2022/06/04 09:39:17;;;;;;;90.72;86.22;;;;;;;21.89;46.12;101873.19;5033022;28;20037;-87
2022/06/04 09:41:50;;;;;;;96.97;92.15;;;;;;;21.98;46.29;101871.44;5033645;28;20048;-88
2022/06/04 09:44:16;;;;;;;102.60;97.57;;;;;;;22.12;46.14;101876.25;5035760;28;20033;-79
2022/06/04 09:46:43;;;;;;;104.47;99.38;;;;;;;22.20;46.69;101881.13;5033981;28;20084;-80
2022/06/04 09:49:23;;;;;;;111.70;105.37;;;;;;;22.29;45.60;101878.56;5033506;28;20485;-84
2022/06/04 09:51:49;;;;;;;102.63;97.63;;;;;;;22.17;45.99;101878.94;5033515;28;20465;-79
2022/06/04 09:54:28;;;;;;;101.57;96.32;;;;;;;22.17;45.99;101881.69;5033169;28;20037;-79
2022/06/04 09:57:01;;;;;;;91.35;86.63;;;;;;;22.07;47.58;101885.38;5034039;28;20458;-80
2022/06/04 09:59:30;;;;;;;93.90;88.70;;;;;;;22.00;47.86;101874.72;5032139;28;20496;-77
2022/06/04 10:02:17;;;;;;;90.75;86.30;;;;;;;21.92;47.38;101877.28;5033396;28;20531;-79
2022/06/04 10:04:47;;;;;;;85.97;81.63;;;;;;;21.90;46.83;101888.59;5032567;28;20041;-77
2022/06/04 10:07:16;;;;;;;85.20;80.90;;;;;;;21.91;46.60;101886.66;5033540;28;20457;-75
2022/06/04 10:09:57;;;;;;;84.43;80.13;;;;;;;21.91;45.97;101884.72;5033333;28;20025;-75
2022/06/04 10:15:40;;;;;;;85.15;80.80;;;;;;;21.98;49.08;101898.16;5032919;28;20099;-76
2022/06/04 10:18:05;;;;;;;87.60;83.20;;;;;;;21.96;50.08;101900.34;5033155;28;20422;-80
2022/06/04 10:20:31;;;;;;;90.22;85.47;;;;;;;21.91;50.19;101895.72;5033159;28;20065;-79
2022/06/04 10:22:57;;;;;;;91.05;86.60;;;;;;;21.85;49.12;101891.41;5031606;28;20082;-79
2022/06/04 10:25:29;;;;;;;91.70;87.28;;;;;;;21.84;48.05;101887.00;5048595;28;20120;-80
2022/06/04 10:28:13;;;;;;;92.72;88.10;;;;;;;21.84;47.98;101887.00;5031650;28;20029;-79
2022/06/04 10:31:06;;;;;;;93.97;89.28;;;;;;;21.85;47.97;101896.06;5032037;28;20033;-78
2022/06/04 10:33:47;;;;;;;94.57;89.88;;;;;;;21.82;47.94;101891.97;5037104;28;20187;-77
2022/06/04 10:36:49;;;;;;;95.97;91.38;;;;;;;21.84;47.72;101892.50;5035605;28;20051;-78
2022/06/04 10:39:33;;;;;;;96.13;91.15;;;;;;;21.85;47.51;101896.91;5036119;28;20183;-78
2022/06/04 10:42:27;;;;;;;94.38;89.65;;;;;;;21.86;48.00;101889.47;5036016;28;20030;-75
2022/06/04 10:44:53;;;;;;;94.85;90.30;;;;;;;21.91;47.76;101889.41;5034578;28;20095;-78
2022/06/04 10:47:31;;;;;;;98.70;93.88;;;;;;;21.98;48.10;101893.47;5034446;28;20037;-83
2022/06/04 10:50:18;;;;;;;98.18;93.47;;;;;;;21.98;49.08;101890.69;5036625;28;20033;-82
2022/06/04 10:53:28;;;;;;;99.13;94.43;;;;;;;21.92;48.01;101891.84;5035849;28;20040;-84
2022/06/04 10:55:59;;;;;;;101.63;97.05;;;;;;;21.93;48.57;101893.50;5036319;28;20075;-82
2022/06/04 10:58:24;;;;;;;106.43;101.20;;;;;;;21.90;48.49;101893.25;5036187;28;20033;-81
2022/06/04 11:00:59;;;;;;;107.60;102.53;;;;;;;21.92;48.71;101894.59;5035740;28;20033;-81
2022/06/04 11:03:28;;;;;;;111.18;105.88;;;;;;;21.93;48.74;101893.50;5036013;28;20044;-81
2022/06/04 11:06:02;;;;;;;112.90;107.80;;;;;;;21.95;48.17;101899.53;5035479;28;20037;-82
2022/06/04 11:08:38;;;;;;;112.50;107.30;;;;;;;21.93;48.25;101898.19;5035659;28;20037;-80
2022/06/04 11:11:15;;;;;;;111.80;106.50;;;;;;;21.96;48.02;101884.66;5035842;28;20041;-85
2022/06/04 11:13:48;;;;;;;111.47;106.18;;;;;;;21.93;48.09;101881.69;5034577;28;20378;-82
2022/06/04 11:16:21;;;;;;;111.88;106.55;;;;;;;21.96;47.50;101887.41;5042490;28;20029;-82
2022/06/04 11:19:06;;;;;;;112.93;107.57;;;;;;;22.01;47.78;101879.09;5045154;28;20040;-81
2022/06/04 11:21:56;;;;;;;115.47;110.22;;;;;;;22.04;47.62;101883.19;5048543;28;20029;-84
2022/06/04 11:24:30;;;;;;;118.72;113.15;;;;;;;22.07;47.57;101893.63;5057695;28;20013;-88
2022/06/04 11:27:18;;;;;;;118.70;113.22;;;;;;;22.06;47.96;101892.00;5046075;28;20091;-81
2022/06/04 11:29:44;;;;;;;124.60;118.85;;;;;;;22.09;48.22;101885.91;5035572;28;20026;-82
2022/06/04 11:32:34;;;;;;;126.30;120.40;;;;;;;22.09;48.04;101887.84;5035864;28;20481;-86